createdAt,value
2019-01-02T00:01:10.132Z,1026.75
2019-01-02T00:02:19.584Z,1026.74
2019-01-02T00:03:28.560Z,1026.74
2019-01-02T00:04:38.507Z,1026.76
2019-01-02T00:05:49.484Z,1026.8
2019-01-02T00:06:58.943Z,1026.77
2019-01-02T00:08:08.676Z,1026.81
2019-01-02T00:09:18.538Z,1026.86
2019-01-02T00:10:29.073Z,1026.89
2019-01-02T00:11:38.277Z,1026.86
2019-01-02T00:12:47.503Z,1026.86
2019-01-02T00:13:58.318Z,1026.82
2019-01-02T00:15:08.040Z,1026.75
2019-01-02T00:16:17.007Z,1026.82
2019-01-02T00:17:26.213Z,1026.84
2019-01-02T00:18:37.077Z,1026.91
2019-01-02T00:19:46.547Z,1026.94
2019-01-02T00:20:55.762Z,1026.9
2019-01-02T00:22:06.852Z,1026.93
2019-01-02T00:23:16.075Z,1026.94
2019-01-02T00:24:25.307Z,1026.97
2019-01-02T00:25:34.773Z,1026.92
2019-01-02T00:26:46.139Z,1026.89
2019-01-02T00:27:55.847Z,1026.93
2019-01-02T00:29:05.551Z,1026.96
2019-01-02T00:30:15.127Z,1026.96
2019-01-02T00:31:26.190Z,1026.99
2019-01-02T00:32:36.150Z,1027
2019-01-02T00:33:45.373Z,1027.02
2019-01-02T00:34:56.167Z,1027.04
2019-01-02T00:36:06.257Z,1026.98
2019-01-02T00:37:15.980Z,1026.91
2019-01-02T00:38:25.368Z,1026.93
2019-01-02T00:39:36.661Z,1026.95
2019-01-02T00:40:45.886Z,1026.92
2019-01-02T00:41:54.856Z,1026.91
2019-01-02T00:43:05.822Z,1026.89
2019-01-02T00:44:15.887Z,1026.92
2019-01-02T00:45:25.351Z,1026.88
2019-01-02T00:46:34.605Z,1026.9
2019-01-02T00:47:45.217Z,1026.95
2019-01-02T00:48:54.187Z,1026.93
2019-01-02T00:50:03.435Z,1026.9
2019-01-02T00:51:13.736Z,1026.91
2019-01-02T00:52:24.062Z,1026.92
2019-01-02T00:53:33.788Z,1026.91
2019-01-02T00:54:43.760Z,1026.9
2019-01-02T00:55:54.070Z,1026.95
2019-01-02T00:57:04.923Z,1026.98
2019-01-02T00:58:14.658Z,1026.93
2019-01-02T00:59:25.608Z,1026.92
2019-01-02T01:00:34.826Z,1026.98
2019-01-02T01:01:44.065Z,1026.97
2019-01-02T01:02:54.695Z,1027.01
2019-01-02T01:04:03.739Z,1027.03
2019-01-02T01:05:12.951Z,1026.98
2019-01-02T01:06:23.208Z,1027.01
2019-01-02T01:07:34.010Z,1027.03
2019-01-02T01:08:43.479Z,1027.02
2019-01-02T01:09:52.963Z,1027.07
2019-01-02T01:11:03.555Z,1027.09
2019-01-02T01:12:13.054Z,1027.11
2019-01-02T01:13:22.292Z,1027.07
2019-01-02T01:14:33.607Z,1027.11
2019-01-02T01:15:43.577Z,1027.1
2019-01-02T01:16:52.817Z,1027.11
2019-01-02T01:18:02.761Z,1027.19
2019-01-02T01:19:13.150Z,1027.15
2019-01-02T01:20:22.114Z,1027.16
2019-01-02T01:21:31.568Z,1027.14
2019-01-02T01:22:42.436Z,1027.09
2019-01-02T01:23:51.954Z,1027.13
2019-01-02T01:25:01.173Z,1027.17
2019-01-02T01:26:10.889Z,1027.18
2019-01-02T01:27:21.866Z,1027.23
2019-01-02T01:28:32.225Z,1027.25
2019-01-02T01:29:41.432Z,1027.27
2019-01-02T01:30:51.138Z,1027.3
2019-01-02T01:32:01.857Z,1027.32
2019-01-02T01:33:12.353Z,1027.39
2019-01-02T01:34:22.059Z,1027.41
2019-01-02T01:35:31.543Z,1027.41
2019-01-02T01:36:41.251Z,1027.37
2019-01-02T01:37:52.035Z,1027.32
2019-01-02T01:39:01.265Z,1027.41
2019-01-02T01:40:10.729Z,1027.36
2019-01-02T01:41:20.240Z,1027.39
2019-01-02T01:42:31.227Z,1027.44
2019-01-02T01:43:40.956Z,1027.45
2019-01-02T01:44:50.686Z,1027.45
2019-01-02T01:46:00.688Z,1027.43
2019-01-02T01:47:11.805Z,1027.47
2019-01-02T01:48:21.024Z,1027.41
2019-01-02T01:49:30.491Z,1027.44
2019-01-02T01:50:39.966Z,1027.41
2019-01-02T01:51:50.539Z,1027.45
2019-01-02T01:53:00.259Z,1027.41
2019-01-02T01:54:09.729Z,1027.39
2019-01-02T01:55:18.948Z,1027.4
2019-01-02T01:56:29.949Z,1027.38
2019-01-02T01:57:39.822Z,1027.42
2019-01-02T01:58:49.334Z,1027.45
2019-01-02T01:59:58.781Z,1027.44
2019-01-02T02:01:09.369Z,1027.5
2019-01-02T02:02:19.639Z,1027.55
2019-01-02T02:03:28.352Z,1027.52
2019-01-02T02:04:37.787Z,1027.49
2019-01-02T02:05:48.205Z,1027.47
2019-01-02T02:06:58.296Z,1027.55
2019-01-02T02:08:08.021Z,1027.61
2019-01-02T02:09:17.492Z,1027.64
2019-01-02T02:10:27.600Z,1027.56
2019-01-02T02:11:37.907Z,1027.63
2019-01-02T02:12:47.125Z,1027.61
2019-01-02T02:13:56.837Z,1027.62
2019-01-02T02:15:06.650Z,1027.61
2019-01-02T02:16:17.737Z,1027.54
2019-01-02T02:17:27.216Z,1027.6
2019-01-02T02:18:36.675Z,1027.52
2019-01-02T02:19:45.978Z,1027.55
2019-01-02T02:20:56.678Z,1027.51
2019-01-02T02:22:05.901Z,1027.5
2019-01-02T02:23:15.359Z,1027.57
2019-01-02T02:24:25.099Z,1027.6
2019-01-02T02:25:36.547Z,1027.59
2019-01-02T02:26:45.765Z,1027.73
2019-01-02T02:27:55.479Z,1027.71
2019-01-02T02:29:04.825Z,1027.72
2019-01-02T02:30:15.328Z,1027.67
2019-01-02T02:31:25.112Z,1027.66
2019-01-02T02:32:36.081Z,1027.62
2019-01-02T02:33:47.083Z,1027.68
2019-01-02T02:34:57.623Z,1027.67
2019-01-02T02:36:07.588Z,1027.7
2019-01-02T02:37:18.283Z,1027.73
2019-01-02T02:38:28.003Z,1027.73
2019-01-02T02:39:38.879Z,1027.75
2019-01-02T02:40:49.169Z,1027.71
2019-01-02T02:41:58.401Z,1027.68
2019-01-02T02:43:11.116Z,1027.68
2019-01-02T02:44:20.862Z,1027.6
2019-01-02T02:45:31.337Z,1027.67
2019-01-02T02:46:42.695Z,1027.67
2019-01-02T02:47:51.654Z,1027.64
2019-01-02T02:49:02.764Z,1027.73
2019-01-02T02:50:13.392Z,1027.69
2019-01-02T02:51:23.344Z,1027.72
2019-01-02T02:52:34.452Z,1027.75
2019-01-02T02:53:43.698Z,1027.68
2019-01-02T02:54:54.371Z,1027.75
2019-01-02T02:56:03.593Z,1027.77
2019-01-02T02:57:14.588Z,1027.76
2019-01-02T02:58:24.289Z,1027.75
2019-01-02T02:59:34.734Z,1027.8
2019-01-02T03:00:44.887Z,1027.71
2019-01-02T03:01:55.535Z,1027.69
2019-01-02T03:03:06.577Z,1027.71
2019-01-02T03:04:15.810Z,1027.69
2019-01-02T03:05:26.478Z,1027.68
2019-01-02T03:06:35.713Z,1027.71
2019-01-02T03:07:51.669Z,1027.65
2019-01-02T03:09:03.174Z,1027.67
2019-01-02T03:10:12.659Z,1027.65
2019-01-02T03:11:23.564Z,1027.59
2019-01-02T03:12:33.646Z,1027.63
2019-01-02T03:13:43.812Z,1027.63
2019-01-02T03:14:54.882Z,1027.6
2019-01-02T03:16:04.619Z,1027.63
2019-01-02T03:17:15.247Z,1027.65
2019-01-02T03:18:25.894Z,1027.62
2019-01-02T03:19:36.407Z,1027.52
2019-01-02T03:20:47.639Z,1027.55
2019-01-02T03:21:56.875Z,1027.61
2019-01-02T03:23:07.266Z,1027.64
2019-01-02T03:24:18.738Z,1027.61
2019-01-02T03:25:27.946Z,1027.6
2019-01-02T03:26:39.208Z,1027.6
2019-01-02T03:27:48.667Z,1027.61
2019-01-02T03:28:59.448Z,1027.61
2019-01-02T03:30:09.770Z,1027.6
2019-01-02T03:31:21.006Z,1027.59
2019-01-02T03:32:32.759Z,1027.64
2019-01-02T03:33:43.479Z,1027.67
2019-01-02T03:34:52.659Z,1027.7
2019-01-02T03:36:02.408Z,1027.64
2019-01-02T03:37:12.362Z,1027.73
2019-01-02T03:38:21.828Z,1027.67
2019-01-02T03:39:31.509Z,1027.62
2019-01-02T03:40:40.710Z,1027.65
2019-01-02T03:41:50.660Z,1027.65
2019-01-02T03:43:00.083Z,1027.63
2019-01-02T03:44:09.509Z,1027.62
2019-01-02T03:45:18.705Z,1027.55
2019-01-02T03:46:28.152Z,1027.72
2019-01-02T03:47:37.358Z,1027.63
2019-01-02T03:48:46.805Z,1027.6
2019-01-02T03:49:56.008Z,1027.64
2019-01-02T03:51:05.223Z,1027.55
2019-01-02T03:52:14.923Z,1027.61
2019-01-02T03:53:23.601Z,1027.57
2019-01-02T03:54:32.794Z,1027.52
2019-01-02T03:55:42.493Z,1027.54
2019-01-02T03:56:51.440Z,1027.62
2019-01-02T03:58:00.640Z,1027.61
2019-01-02T03:59:09.846Z,1027.62
2019-01-02T04:00:19.517Z,1027.57
2019-01-02T04:01:28.456Z,1027.64
2019-01-02T04:02:37.907Z,1027.55
2019-01-02T04:03:47.086Z,1027.6
2019-01-02T04:04:56.019Z,1027.6
2019-01-02T04:06:05.690Z,1027.61
2019-01-02T04:07:15.382Z,1027.67
2019-01-02T04:08:24.316Z,1027.63
2019-01-02T04:09:34.018Z,1027.55
2019-01-02T04:10:43.194Z,1027.56
2019-01-02T04:11:52.375Z,1027.56
2019-01-02T04:13:02.052Z,1027.41
2019-01-02T04:14:11.237Z,1027.5
2019-01-02T04:15:20.190Z,1027.5
2019-01-02T04:16:29.418Z,1027.65
2019-01-02T04:17:38.599Z,1027.68
2019-01-02T04:18:48.042Z,1027.73
2019-01-02T04:19:57.486Z,1027.74
2019-01-02T04:21:06.427Z,1027.76
2019-01-02T04:22:15.896Z,1027.67
2019-01-02T04:23:24.586Z,1027.77
2019-01-02T04:24:33.527Z,1027.68
2019-01-02T04:25:42.966Z,1027.64
2019-01-02T04:26:52.636Z,1027.66
2019-01-02T04:28:01.808Z,1027.66
2019-01-02T04:29:11.226Z,1027.68
2019-01-02T04:30:20.181Z,1027.76
2019-01-02T04:31:29.867Z,1027.74
2019-01-02T04:32:39.616Z,1027.7
2019-01-02T04:33:49.075Z,1027.76
2019-01-02T04:34:58.285Z,1027.58
2019-01-02T04:36:07.465Z,1027.57
2019-01-02T04:37:16.889Z,1027.5
2019-01-02T04:38:26.324Z,1027.53
2019-01-02T04:39:36.015Z,1027.6
2019-01-02T04:40:44.954Z,1027.66
2019-01-02T04:41:54.627Z,1027.61
2019-01-02T04:43:03.834Z,1027.68
2019-01-02T04:44:13.275Z,1027.74
2019-01-02T04:45:22.213Z,1027.75
2019-01-02T04:46:31.640Z,1027.77
2019-01-02T04:47:40.579Z,1027.79
2019-01-02T04:48:50.008Z,1027.79
2019-01-02T04:49:59.697Z,1027.81
2019-01-02T04:51:08.615Z,1027.8
2019-01-02T04:52:18.107Z,1027.81
2019-01-02T04:53:27.778Z,1027.78
2019-01-02T04:54:36.716Z,1027.75
2019-01-02T04:55:46.145Z,1027.75
2019-01-02T04:56:55.575Z,1027.79
2019-01-02T04:58:04.506Z,1027.72
2019-01-02T04:59:13.694Z,1027.8
2019-01-02T05:00:23.113Z,1027.86
2019-01-02T05:01:32.558Z,1027.82
2019-01-02T05:02:42.300Z,1027.84
2019-01-02T05:03:51.500Z,1027.88
2019-01-02T05:05:01.180Z,1027.95
2019-01-02T05:06:10.362Z,1027.85
2019-01-02T05:07:20.292Z,1027.88
2019-01-02T05:08:29.235Z,1027.91
2019-01-02T05:09:38.217Z,1027.94
2019-01-02T05:10:47.684Z,1027.87
2019-01-02T05:11:56.866Z,1027.84
2019-01-02T05:13:06.288Z,1027.85
2019-01-02T05:14:15.986Z,1027.85
2019-01-02T05:15:25.664Z,1027.84
2019-01-02T05:16:34.865Z,1027.83
2019-01-02T05:17:44.035Z,1027.86
2019-01-02T05:18:53.471Z,1027.9
2019-01-02T05:20:02.660Z,1027.91
2019-01-02T05:21:11.593Z,1027.98
2019-01-02T05:22:21.539Z,1028.01
2019-01-02T05:23:31.224Z,1028.01
2019-01-02T05:24:40.447Z,1028.07
2019-01-02T05:25:49.390Z,1028.13
2019-01-02T05:26:58.863Z,1028.16
2019-01-02T05:28:08.297Z,1028.15
2019-01-02T05:29:17.476Z,1028.19
2019-01-02T05:30:26.402Z,1028.19
2019-01-02T05:31:35.346Z,1028.14
2019-01-02T05:32:44.535Z,1028.16
2019-01-02T05:33:53.468Z,1028.19
2019-01-02T05:35:02.907Z,1028.16
2019-01-02T05:36:11.859Z,1028.2
2019-01-02T05:37:21.288Z,1028.21
2019-01-02T05:38:30.487Z,1028.18
2019-01-02T05:39:39.694Z,1028.16
2019-01-02T05:40:49.378Z,1028.18
2019-01-02T05:41:59.088Z,1028.16
2019-01-02T05:43:08.528Z,1028.2
2019-01-02T05:44:17.957Z,1028.21
2019-01-02T05:45:27.150Z,1028.29
2019-01-02T05:46:36.581Z,1028.32
2019-01-02T05:47:46.024Z,1028.28
2019-01-02T05:48:54.972Z,1028.19
2019-01-02T05:50:04.674Z,1028.27
2019-01-02T05:51:14.378Z,1028.21
2019-01-02T05:52:23.816Z,1028.23
2019-01-02T05:53:33.514Z,1028.17
2019-01-02T05:54:42.947Z,1028.22
2019-01-02T05:55:52.139Z,1028.22
2019-01-02T05:57:01.325Z,1028.28
2019-01-02T05:58:10.524Z,1028.29
2019-01-02T05:59:19.476Z,1028.27
2019-01-02T06:00:29.183Z,1028.27
2019-01-02T06:01:44.503Z,1028.3
2019-01-02T06:02:54.171Z,1028.32
2019-01-02T06:04:03.645Z,1028.34
2019-01-02T06:05:12.843Z,1028.32
2019-01-02T06:06:22.288Z,1028.35
2019-01-02T06:07:31.971Z,1028.37
2019-01-02T06:08:41.402Z,1028.34
2019-01-02T06:09:50.827Z,1028.35
2019-01-02T06:11:00.585Z,1028.33
2019-01-02T06:12:09.800Z,1028.42
2019-01-02T06:13:19.730Z,1028.43
2019-01-02T06:14:28.665Z,1028.44
2019-01-02T06:15:38.946Z,1028.42
2019-01-02T06:16:48.144Z,1028.4
2019-01-02T06:17:57.085Z,1028.44
2019-01-02T06:19:06.275Z,1028.39
2019-01-02T06:20:15.452Z,1028.4
2019-01-02T06:21:24.628Z,1028.37
2019-01-02T06:22:34.315Z,1028.4
2019-01-02T06:23:44.030Z,1028.4
2019-01-02T06:24:53.457Z,1028.49
2019-01-02T06:26:03.159Z,1028.48
2019-01-02T06:27:12.856Z,1028.5
2019-01-02T06:28:22.309Z,1028.49
2019-01-02T06:29:31.734Z,1028.5
2019-01-02T06:30:40.925Z,1028.56
2019-01-02T06:31:50.120Z,1028.56
2019-01-02T06:33:00.059Z,1028.53
2019-01-02T06:34:09.257Z,1028.49
2019-01-02T06:35:18.198Z,1028.48
2019-01-02T06:36:27.602Z,1028.5
2019-01-02T06:37:36.545Z,1028.46
2019-01-02T06:38:45.738Z,1028.51
2019-01-02T06:39:54.683Z,1028.51
2019-01-02T06:41:04.130Z,1028.48
2019-01-02T06:42:13.552Z,1028.51
2019-01-02T06:43:22.984Z,1028.54
2019-01-02T06:44:32.418Z,1028.55
2019-01-02T06:45:41.847Z,1028.54
2019-01-02T06:46:51.041Z,1028.56
2019-01-02T06:48:00.718Z,1028.63
2019-01-02T06:49:10.148Z,1028.58
2019-01-02T06:50:19.602Z,1028.64
2019-01-02T06:51:29.287Z,1028.6
2019-01-02T06:52:38.755Z,1028.65
2019-01-02T06:53:47.709Z,1028.6
2019-01-02T06:54:57.136Z,1028.63
2019-01-02T06:56:06.327Z,1028.66
2019-01-02T06:57:15.279Z,1028.67
2019-01-02T06:58:24.445Z,1028.71
2019-01-02T06:59:33.367Z,1028.74
2019-01-02T07:00:42.578Z,1028.81
2019-01-02T07:01:51.513Z,1028.75
2019-01-02T07:03:01.250Z,1028.75
2019-01-02T07:04:10.191Z,1028.8
2019-01-02T07:05:20.116Z,1028.75
2019-01-02T07:06:29.550Z,1028.77
2019-01-02T07:07:39.255Z,1028.89
2019-01-02T07:08:48.668Z,1028.9
2019-01-02T07:09:58.134Z,1028.98
2019-01-02T07:11:07.545Z,1028.99
2019-01-02T07:12:16.733Z,1028.97
2019-01-02T07:13:26.159Z,1028.98
2019-01-02T07:14:35.605Z,1028.97
2019-01-02T07:15:45.042Z,1028.97
2019-01-02T07:16:54.219Z,1028.97
2019-01-02T07:18:03.637Z,1028.96
2019-01-02T07:19:13.077Z,1029
2019-01-02T07:20:22.271Z,1028.93
2019-01-02T07:21:31.464Z,1028.93
2019-01-02T07:22:40.388Z,1028.99
2019-01-02T07:23:49.557Z,1029.08
2019-01-02T07:24:58.992Z,1029.09
2019-01-02T07:26:08.432Z,1029.16
2019-01-02T07:27:17.877Z,1029.12
2019-01-02T07:28:27.347Z,1029.13
2019-01-02T07:29:36.537Z,1029.17
2019-01-02T07:30:46.483Z,1029.15
2019-01-02T07:31:55.608Z,1029.21
2019-01-02T07:33:04.799Z,1029.19
2019-01-02T07:34:13.737Z,1029.19
2019-01-02T07:35:22.919Z,1029.16
2019-01-02T07:36:32.123Z,1029.24
2019-01-02T07:37:41.305Z,1029.22
2019-01-02T07:38:50.722Z,1029.24
2019-01-02T07:39:59.938Z,1029.27
2019-01-02T07:41:09.374Z,1029.21
2019-01-02T07:42:18.582Z,1029.23
2019-01-02T07:43:27.770Z,1029.31
2019-01-02T07:44:36.960Z,1029.32
2019-01-02T07:45:45.725Z,1029.31
2019-01-02T07:46:54.926Z,1029.29
2019-01-02T07:48:04.602Z,1029.35
2019-01-02T07:49:14.295Z,1029.33
2019-01-02T07:50:23.478Z,1029.35
2019-01-02T07:51:32.456Z,1029.44
2019-01-02T07:52:41.883Z,1029.44
2019-01-02T07:53:50.813Z,1029.42
2019-01-02T07:55:00.958Z,1029.45
2019-01-02T07:56:10.516Z,1029.47
2019-01-02T07:57:20.218Z,1029.52
2019-01-02T07:58:29.644Z,1029.49
2019-01-02T07:59:38.834Z,1029.54
2019-01-02T08:00:48.016Z,1029.6
2019-01-02T08:01:57.467Z,1029.52
2019-01-02T08:03:06.661Z,1029.61
2019-01-02T08:04:15.357Z,1029.56
2019-01-02T08:05:24.811Z,1029.58
2019-01-02T08:06:34.009Z,1029.57
2019-01-02T08:07:43.446Z,1029.61
2019-01-02T08:08:52.621Z,1029.66
2019-01-02T08:10:02.078Z,1029.55
2019-01-02T08:11:12.056Z,1029.56
2019-01-02T08:12:20.978Z,1029.58
2019-01-02T08:13:30.414Z,1029.6
2019-01-02T08:14:41.406Z,1029.6
2019-01-02T08:15:50.575Z,1029.65
2019-01-02T08:17:00.252Z,1029.6
2019-01-02T08:18:09.681Z,1029.58
2019-01-02T08:19:19.108Z,1029.55
2019-01-02T08:20:28.781Z,1029.56
2019-01-02T08:21:38.230Z,1029.61
2019-01-02T08:22:47.185Z,1029.59
2019-01-02T08:23:56.622Z,1029.67
2019-01-02T08:25:05.815Z,1029.65
2019-01-02T08:26:15.506Z,1029.67
2019-01-02T08:27:24.458Z,1029.68
2019-01-02T08:28:33.877Z,1029.64
2019-01-02T08:29:43.072Z,1029.62
2019-01-02T08:30:52.770Z,1029.65
2019-01-02T08:32:02.199Z,1029.62
2019-01-02T08:33:11.421Z,1029.63
2019-01-02T08:34:20.868Z,1029.67
2019-01-02T08:35:30.564Z,1029.64
2019-01-02T08:36:40.017Z,1029.66
2019-01-02T08:37:49.443Z,1029.63
2019-01-02T08:38:58.439Z,1029.64
2019-01-02T08:40:07.884Z,1029.59
2019-01-02T08:41:17.310Z,1029.57
2019-01-02T08:42:26.999Z,1029.65
2019-01-02T08:43:35.937Z,1029.62
2019-01-02T08:44:45.863Z,1029.59
2019-01-02T08:45:55.040Z,1029.62
2019-01-02T08:47:03.712Z,1029.69
2019-01-02T08:48:13.162Z,1029.73
2019-01-02T08:49:22.117Z,1029.72
2019-01-02T08:50:31.559Z,1029.74
2019-01-02T08:51:40.729Z,1029.69
2019-01-02T08:52:50.161Z,1029.74
2019-01-02T08:53:59.839Z,1029.76
2019-01-02T08:55:09.280Z,1029.74
2019-01-02T08:56:18.772Z,1029.75
2019-01-02T08:57:28.455Z,1029.78
2019-01-02T08:58:37.633Z,1029.77
2019-01-02T08:59:47.572Z,1029.81
2019-01-02T09:00:56.748Z,1029.75
2019-01-02T09:02:06.427Z,1029.77
2019-01-02T09:03:15.841Z,1029.84
2019-01-02T09:04:25.021Z,1029.87
2019-01-02T09:05:34.245Z,1029.89
2019-01-02T09:06:43.915Z,1029.87
2019-01-02T09:07:53.102Z,1029.88
2019-01-02T09:09:02.301Z,1029.93
2019-01-02T09:10:12.936Z,1029.99
2019-01-02T09:11:22.386Z,1029.96
2019-01-02T09:12:31.550Z,1029.99
2019-01-02T09:13:40.742Z,1030.02
2019-01-02T09:14:49.928Z,1029.99
2019-01-02T09:15:59.363Z,1030.06
2019-01-02T09:17:08.539Z,1030.05
2019-01-02T09:18:17.736Z,1030.04
2019-01-02T09:19:26.675Z,1030.04
2019-01-02T09:20:36.154Z,1030.07
2019-01-02T09:21:45.412Z,1030.1
2019-01-02T09:22:54.621Z,1030.05
2019-01-02T09:24:03.816Z,1030.1
2019-01-02T09:25:13.266Z,1030.07
2019-01-02T09:26:22.713Z,1030.13
2019-01-02T09:27:32.386Z,1030.12
2019-01-02T09:28:41.313Z,1030.14
2019-01-02T09:29:50.751Z,1030.17
2019-01-02T09:30:59.952Z,1030.2
2019-01-02T09:32:08.643Z,1030.22
2019-01-02T09:33:18.069Z,1030.29
2019-01-02T09:34:27.239Z,1030.27
2019-01-02T09:35:36.661Z,1030.27
2019-01-02T09:36:45.683Z,1030.26
2019-01-02T09:37:54.898Z,1030.28
2019-01-02T09:39:04.081Z,1030.33
2019-01-02T09:40:13.249Z,1030.3
2019-01-02T09:41:22.925Z,1030.32
2019-01-02T09:42:33.063Z,1030.31
2019-01-02T09:43:41.759Z,1030.37
2019-01-02T09:44:51.462Z,1030.26
2019-01-02T09:46:00.688Z,1030.19
2019-01-02T09:47:10.631Z,1030.23
2019-01-02T09:48:20.183Z,1030.27
2019-01-02T09:49:29.862Z,1030.23
2019-01-02T09:50:38.796Z,1030.24
2019-01-02T09:51:48.247Z,1030.19
2019-01-02T09:52:57.694Z,1030.25
2019-01-02T09:54:06.915Z,1030.22
2019-01-02T09:55:16.092Z,1030.24
2019-01-02T09:56:26.055Z,1030.22
2019-01-02T09:57:35.252Z,1030.2
2019-01-02T09:58:44.679Z,1030.25
2019-01-02T09:59:53.866Z,1030.27
2019-01-02T10:01:03.302Z,1030.33
2019-01-02T10:02:12.745Z,1030.37
2019-01-02T10:03:21.953Z,1030.33
2019-01-02T10:04:31.383Z,1030.37
2019-01-02T10:05:40.589Z,1030.28
2019-01-02T10:06:49.782Z,1030.42
2019-01-02T10:07:59.246Z,1030.31
2019-01-02T10:09:08.949Z,1030.36
2019-01-02T10:10:19.686Z,1030.33
2019-01-02T10:11:28.883Z,1030.37
2019-01-02T10:12:38.567Z,1030.37
2019-01-02T10:13:47.508Z,1030.36
2019-01-02T10:14:57.186Z,1030.33
2019-01-02T10:16:06.108Z,1030.32
2019-01-02T10:17:15.050Z,1030.36
2019-01-02T10:18:24.480Z,1030.35
2019-01-02T10:19:33.679Z,1030.46
2019-01-02T10:20:43.932Z,1030.41
2019-01-02T10:21:53.279Z,1030.4
2019-01-02T10:23:02.219Z,1030.37
2019-01-02T10:24:11.931Z,1030.41
2019-01-02T10:25:21.355Z,1030.34
2019-01-02T10:26:30.066Z,1030.35
2019-01-02T10:27:39.244Z,1030.33
2019-01-02T10:28:48.690Z,1030.31
2019-01-02T10:29:57.897Z,1030.28
2019-01-02T10:31:07.577Z,1030.25
2019-01-02T10:32:17.237Z,1030.31
2019-01-02T10:33:26.671Z,1030.21
2019-01-02T10:34:36.108Z,1030.27
2019-01-02T10:35:45.303Z,1030.26
2019-01-02T10:36:54.227Z,1030.2
2019-01-02T10:38:03.901Z,1030.24
2019-01-02T10:39:13.099Z,1030.23
2019-01-02T10:40:22.363Z,1030.23
2019-01-02T10:41:31.805Z,1030.25
2019-01-02T10:42:40.770Z,1030.28
2019-01-02T10:43:50.466Z,1030.27
2019-01-02T10:44:59.650Z,1030.26
2019-01-02T10:46:09.372Z,1030.19
2019-01-02T10:47:18.594Z,1030.12
2019-01-02T10:48:28.282Z,1030.23
2019-01-02T10:49:37.705Z,1030.26
2019-01-02T10:50:47.138Z,1030.21
2019-01-02T10:51:56.567Z,1030.2
2019-01-02T10:53:05.996Z,1030.19
2019-01-02T10:54:15.672Z,1030.23
2019-01-02T10:55:24.363Z,1030.23
2019-01-02T10:56:34.074Z,1030.25
2019-01-02T10:57:42.748Z,1030.31
2019-01-02T10:58:52.434Z,1030.26
2019-01-02T11:00:01.623Z,1030.3
2019-01-02T11:01:11.071Z,1030.26
2019-01-02T11:02:20.235Z,1030.21
2019-01-02T11:03:29.662Z,1030.24
2019-01-02T11:04:39.078Z,1030.29
2019-01-02T11:05:49.004Z,1030.27
2019-01-02T11:06:58.427Z,1030.26
2019-01-02T11:08:08.028Z,1030.24
2019-01-02T11:09:20.687Z,1030.19
2019-01-02T11:10:30.107Z,1030.22
2019-01-02T11:11:39.287Z,1030.21
2019-01-02T11:12:48.755Z,1030.22
2019-01-02T11:13:58.235Z,1030.26
2019-01-02T11:15:07.660Z,1030.2
2019-01-02T11:16:16.656Z,1030.3
2019-01-02T11:17:25.844Z,1030.26
2019-01-02T11:18:35.576Z,1030.39
2019-01-02T11:19:44.534Z,1030.33
2019-01-02T11:20:54.008Z,1030.35
2019-01-02T11:22:03.174Z,1030.4
2019-01-02T11:23:12.657Z,1030.35
2019-01-02T11:24:21.858Z,1030.32
2019-01-02T11:25:31.041Z,1030.37
2019-01-02T11:26:40.516Z,1030.43
2019-01-02T11:27:49.942Z,1030.34
2019-01-02T11:28:59.394Z,1030.43
2019-01-02T11:30:08.629Z,1030.43
2019-01-02T11:31:17.854Z,1030.45
2019-01-02T11:32:27.041Z,1030.45
2019-01-02T11:33:36.489Z,1030.41
2019-01-02T11:34:45.915Z,1030.37
2019-01-02T11:35:55.939Z,1030.46
2019-01-02T11:37:05.914Z,1030.43
2019-01-02T11:38:15.114Z,1030.42
2019-01-02T11:39:24.058Z,1030.46
2019-01-02T11:40:33.237Z,1030.47
2019-01-02T11:41:42.416Z,1030.44
2019-01-02T11:42:51.350Z,1030.4
2019-01-02T11:44:01.087Z,1030.42
2019-01-02T11:45:11.078Z,1030.38
2019-01-02T11:46:20.276Z,1030.32
2019-01-02T11:47:29.735Z,1030.33
2019-01-02T11:48:38.682Z,1030.41
2019-01-02T11:49:47.613Z,1030.29
2019-01-02T11:50:57.105Z,1030.36
2019-01-02T11:52:06.858Z,1030.34
2019-01-02T11:53:17.081Z,1030.32
2019-01-02T11:54:27.009Z,1030.28
2019-01-02T11:55:36.459Z,1030.27
2019-01-02T11:56:45.673Z,1030.25
2019-01-02T11:57:54.874Z,1030.18
2019-01-02T11:59:03.564Z,1030.18
2019-01-02T12:00:13.045Z,1030.2
2019-01-02T12:01:22.224Z,1030.28
2019-01-02T12:02:34.249Z,1030.26
2019-01-02T12:03:43.591Z,1030.28
2019-01-02T12:04:52.793Z,1030.31
2019-01-02T12:06:02.232Z,1030.23
2019-01-02T12:07:11.163Z,1030.26
2019-01-02T12:08:20.351Z,1030.23
2019-01-02T12:09:29.552Z,1030.31
2019-01-02T12:10:38.504Z,1030.3
2019-01-02T12:11:47.930Z,1030.27
2019-01-02T12:12:57.628Z,1030.31
2019-01-02T12:14:07.606Z,1030.3
2019-01-02T12:15:17.037Z,1030.37
2019-01-02T12:16:25.708Z,1030.34
2019-01-02T12:17:35.625Z,1030.32
2019-01-02T12:18:44.564Z,1030.32
2019-01-02T12:19:54.013Z,1030.33
2019-01-02T12:21:03.442Z,1030.34
2019-01-02T12:22:12.623Z,1030.45
2019-01-02T12:23:23.180Z,1030.37
2019-01-02T12:24:32.624Z,1030.37
2019-01-02T12:25:41.828Z,1030.37
2019-01-02T12:26:51.022Z,1030.42
2019-01-02T12:28:00.014Z,1030.44
2019-01-02T12:29:09.203Z,1030.3
2019-01-02T12:30:18.638Z,1030.37
2019-01-02T12:31:27.820Z,1030.31
2019-01-02T12:32:37.513Z,1030.32
2019-01-02T12:33:47.195Z,1030.28
2019-01-02T12:34:56.383Z,1030.28
2019-01-02T12:36:05.572Z,1030.33
2019-01-02T12:37:15.008Z,1030.23
2019-01-02T12:38:24.191Z,1030.27
2019-01-02T12:39:33.120Z,1030.24
2019-01-02T12:40:42.313Z,1030.26
2019-01-02T12:41:51.498Z,1030.3
2019-01-02T12:43:00.690Z,1030.28
2019-01-02T12:44:09.876Z,1030.27
2019-01-02T12:45:19.055Z,1030.25
2019-01-02T12:46:28.495Z,1030.22
2019-01-02T12:47:38.197Z,1030.25
2019-01-02T12:48:47.621Z,1030.26
2019-01-02T12:49:58.356Z,1030.26
2019-01-02T12:51:07.831Z,1030.32
2019-01-02T12:52:17.008Z,1030.27
2019-01-02T12:53:26.701Z,1030.3
2019-01-02T12:54:35.641Z,1030.35
2019-01-02T12:55:44.822Z,1030.35
2019-01-02T12:56:53.753Z,1030.35
2019-01-02T12:58:03.472Z,1030.39
2019-01-02T12:59:12.908Z,1030.35
2019-01-02T13:00:21.861Z,1030.39
2019-01-02T13:01:31.288Z,1030.28
2019-01-02T13:02:40.738Z,1030.38
2019-01-02T13:03:50.171Z,1030.35
2019-01-02T13:04:59.341Z,1030.37
2019-01-02T13:06:08.334Z,1030.39
2019-01-02T13:07:17.522Z,1030.43
2019-01-02T13:08:27.250Z,1030.5
2019-01-02T13:09:36.212Z,1030.44
2019-01-02T13:10:45.440Z,1030.48
2019-01-02T13:11:54.389Z,1030.45
2019-01-02T13:13:03.319Z,1030.5
2019-01-02T13:14:13.651Z,1030.42
2019-01-02T13:15:22.840Z,1030.43
2019-01-02T13:16:32.015Z,1030.4
2019-01-02T13:17:41.729Z,1030.46
2019-01-02T13:18:50.994Z,1030.51
2019-01-02T13:20:00.223Z,1030.51
2019-01-02T13:21:09.420Z,1030.48
2019-01-02T13:22:18.842Z,1030.53
2019-01-02T13:23:28.277Z,1030.49
2019-01-02T13:24:37.767Z,1030.49
2019-01-02T13:25:47.714Z,1030.48
2019-01-02T13:26:56.908Z,1030.48
2019-01-02T13:28:05.865Z,1030.49
2019-01-02T13:29:15.337Z,1030.48
2019-01-02T13:30:24.503Z,1030.56
2019-01-02T13:31:33.913Z,1030.56
2019-01-02T13:32:43.387Z,1030.57
2019-01-02T13:33:52.577Z,1030.59
2019-01-02T13:35:01.771Z,1030.65
2019-01-02T13:36:11.674Z,1030.64
2019-01-02T13:37:21.119Z,1030.66
2019-01-02T13:38:30.830Z,1030.64
2019-01-02T13:39:40.258Z,1030.65
2019-01-02T13:40:49.974Z,1030.65
2019-01-02T13:41:59.163Z,1030.62
2019-01-02T13:43:08.917Z,1030.63
2019-01-02T13:44:18.412Z,1030.61
2019-01-02T13:45:27.876Z,1030.68
2019-01-02T13:46:37.402Z,1030.67
2019-01-02T13:47:46.626Z,1030.72
2019-01-02T13:48:55.833Z,1030.74
2019-01-02T13:50:04.772Z,1030.7
2019-01-02T13:51:14.247Z,1030.73
2019-01-02T13:52:23.691Z,1030.7
2019-01-02T13:53:32.927Z,1030.65
2019-01-02T13:54:41.865Z,1030.71
2019-01-02T13:55:52.340Z,1030.7
2019-01-02T13:57:02.129Z,1030.67
2019-01-02T13:58:11.564Z,1030.67
2019-01-02T13:59:20.495Z,1030.69
2019-01-02T14:00:29.426Z,1030.7
2019-01-02T14:01:38.604Z,1030.74
2019-01-02T14:02:48.061Z,1030.8
2019-01-02T14:03:57.228Z,1030.79
2019-01-02T14:05:06.427Z,1030.75